createdAt,value
2019-04-11T00:00:58.001Z,7.60
2019-04-11T00:03:27.154Z,7.50
2019-04-11T00:05:55.610Z,7.30
2019-04-11T00:08:24.081Z,7.20
2019-04-11T00:10:53.495Z,7.20
2019-04-11T00:13:25.646Z,7.30
2019-04-11T00:15:52.969Z,7.40
2019-04-11T00:18:21.422Z,7.50
2019-04-11T00:20:50.611Z,7.50
2019-04-11T00:23:19.225Z,7.60
2019-04-11T00:25:47.643Z,7.50
2019-04-11T00:28:16.049Z,7.60
2019-04-11T00:30:45.105Z,7.50
2019-04-11T00:33:13.987Z,7.60
2019-04-11T00:35:42.413Z,7.70
2019-04-11T00:38:11.757Z,7.70
2019-04-11T00:40:40.251Z,7.60
2019-04-11T00:43:09.477Z,7.40
2019-04-11T00:45:38.114Z,7.30
2019-04-11T00:48:06.593Z,7.50
2019-04-11T00:53:12.372Z,7.50
2019-04-11T00:55:41.791Z,7.20
2019-04-11T00:58:10.310Z,7.20
2019-04-11T01:00:39.741Z,7.00
2019-04-11T01:03:09.597Z,7.00
2019-04-11T01:05:39.342Z,6.90
2019-04-11T01:08:08.324Z,6.80
2019-04-11T01:10:36.753Z,6.80
2019-04-11T01:13:05.168Z,6.80
2019-04-11T01:15:33.622Z,6.60
2019-04-11T01:18:02.038Z,6.90
2019-04-11T01:20:31.333Z,6.90
2019-04-11T01:22:59.938Z,6.90
2019-04-11T01:25:28.485Z,6.90
2019-04-11T01:27:56.989Z,6.80
2019-04-11T01:30:29.082Z,6.80
2019-04-11T01:32:59.000Z,6.80
2019-04-11T01:35:27.486Z,6.60
2019-04-11T01:37:55.966Z,6.80
2019-04-11T01:40:25.483Z,6.90
2019-04-11T01:42:53.970Z,6.70
2019-04-11T01:45:23.918Z,6.90
2019-04-11T01:47:57.401Z,6.90
2019-04-11T01:50:27.566Z,6.80
2019-04-11T01:52:56.290Z,6.90
2019-04-11T01:55:26.017Z,7.00
2019-04-11T01:57:54.602Z,6.80
2019-04-11T02:00:42.670Z,6.80
2019-04-11T02:03:12.939Z,6.70
2019-04-11T02:05:41.398Z,6.60
2019-04-11T02:08:11.196Z,6.70
2019-04-11T02:10:39.737Z,6.70
2019-04-11T02:13:08.162Z,6.70
2019-04-11T02:15:36.726Z,6.90
2019-04-11T02:18:05.460Z,6.60
2019-04-11T02:20:33.945Z,6.70
2019-04-11T02:23:04.637Z,6.60
2019-04-11T02:25:50.627Z,6.70
2019-04-11T02:28:20.280Z,6.80
2019-04-11T02:30:54.159Z,6.60
2019-04-11T02:33:24.782Z,6.70
2019-04-11T02:35:54.358Z,6.80
2019-04-11T02:38:24.319Z,6.70
2019-04-11T02:40:54.868Z,6.80
2019-04-11T02:43:25.231Z,6.90
2019-04-11T02:46:09.047Z,6.70
2019-04-11T02:48:24.581Z,6.50
2019-04-11T02:50:54.257Z,6.60
2019-04-11T02:53:24.504Z,6.60
2019-04-11T02:55:54.192Z,6.80
2019-04-11T02:58:24.934Z,6.70
2019-04-11T03:00:55.373Z,6.60
2019-04-11T03:03:23.477Z,6.60
2019-04-11T03:05:53.327Z,6.70
2019-04-11T03:08:22.745Z,6.80
2019-04-11T03:10:53.604Z,6.70
2019-04-11T03:13:23.281Z,6.40
2019-04-11T03:16:07.383Z,6.50
2019-04-11T03:18:40.278Z,6.50
2019-04-11T03:20:56.639Z,6.40
2019-04-11T03:23:23.563Z,6.40
2019-04-11T03:25:54.342Z,6.60
2019-04-11T03:28:27.641Z,6.50
2019-04-11T03:31:22.340Z,6.40
2019-04-11T03:34:18.152Z,6.30
2019-04-11T03:38:46.556Z,6.50
2019-04-11T03:41:10.258Z,6.50
2019-04-11T03:43:36.574Z,6.30
2019-04-11T03:48:47.172Z,6.10
2019-04-11T03:51:08.631Z,6.20
2019-04-11T03:53:37.318Z,6.40
2019-04-11T03:56:07.607Z,6.20
2019-04-11T03:58:37.172Z,6.30
2019-04-11T04:01:08.512Z,6.20
2019-04-11T04:03:37.394Z,6.20
2019-04-11T04:06:07.277Z,6.10
2019-04-11T04:08:38.563Z,6.20
2019-04-11T04:11:09.192Z,6.10
2019-04-11T04:13:39.954Z,6.20
2019-04-11T04:16:27.444Z,6.30
2019-04-11T04:18:54.247Z,6.20
2019-04-11T04:21:35.139Z,6.00
2019-04-11T04:24:06.241Z,5.90
2019-04-11T04:26:35.585Z,5.90
2019-04-11T04:29:04.520Z,5.60
2019-04-11T04:31:33.004Z,5.70
2019-04-11T04:34:02.005Z,5.80
2019-04-11T04:36:32.839Z,5.90
2019-04-11T04:39:02.093Z,5.80
2019-04-11T04:41:39.258Z,5.70
2019-04-11T04:44:03.994Z,5.50
2019-04-11T04:46:47.041Z,5.60
2019-04-11T04:49:04.653Z,5.50
2019-04-11T04:51:33.272Z,5.40
2019-04-11T04:54:04.002Z,5.60
2019-04-11T04:56:34.798Z,5.70
2019-04-11T04:59:04.251Z,5.60
2019-04-11T05:01:32.928Z,5.50
2019-04-11T05:04:02.210Z,5.60
2019-04-11T05:06:32.202Z,5.60
2019-04-11T05:09:00.828Z,5.50
2019-04-11T05:11:30.534Z,5.50
2019-04-11T05:14:00.733Z,5.50
2019-04-11T05:16:29.871Z,5.60
2019-04-11T05:18:59.454Z,5.70
2019-04-11T05:21:27.926Z,5.70
2019-04-11T05:23:56.688Z,5.80
2019-04-11T05:26:25.663Z,5.90
2019-04-11T05:28:55.229Z,5.80
2019-04-11T05:31:24.714Z,5.70
2019-04-11T05:33:53.890Z,5.50
2019-04-11T05:36:22.709Z,5.60
2019-04-11T05:38:51.289Z,5.60
2019-04-11T05:41:21.406Z,5.70
2019-04-11T05:43:51.447Z,5.70
2019-04-11T05:46:31.053Z,5.60
2019-04-11T05:49:02.269Z,5.60
2019-04-11T05:51:36.955Z,5.80
2019-04-11T05:54:06.146Z,5.80
2019-04-11T05:56:33.941Z,5.90
2019-04-11T05:59:03.982Z,6.00
2019-04-11T06:01:42.867Z,6.10
2019-04-11T06:04:15.363Z,5.90
2019-04-11T06:07:01.625Z,6.10
2019-04-11T06:09:34.811Z,6.20
2019-04-11T06:12:15.237Z,6.30
2019-04-11T06:15:00.084Z,6.30
2019-04-11T06:17:28.512Z,6.10
2019-04-11T06:20:11.575Z,6.10
2019-04-11T06:22:42.811Z,6.30
2019-04-11T06:25:30.900Z,6.40
2019-04-11T06:28:04.097Z,6.50
2019-04-11T06:30:42.989Z,6.60
2019-04-11T06:33:16.459Z,6.60
2019-04-11T06:38:32.701Z,6.60
2019-04-11T06:41:02.976Z,6.60
2019-04-11T06:43:40.390Z,6.50
2019-04-11T06:46:13.254Z,6.60
2019-04-11T06:48:56.110Z,6.60
2019-04-11T06:51:28.859Z,6.60
2019-04-11T06:54:14.994Z,6.80
2019-04-11T06:56:45.496Z,6.60
2019-04-11T06:59:16.410Z,6.60
2019-04-11T07:01:47.486Z,6.90
2019-04-11T07:04:23.203Z,6.80
2019-04-11T07:06:53.727Z,6.90
2019-04-11T07:09:30.826Z,7.00
2019-04-11T07:12:01.384Z,6.90
2019-04-11T07:14:37.579Z,7.00
2019-04-11T07:17:23.698Z,6.80
2019-04-11T07:20:10.807Z,7.00
2019-04-11T07:22:57.536Z,7.20
2019-04-11T07:25:43.046Z,7.10
2019-04-11T07:28:18.801Z,7.30
2019-04-11T07:31:04.819Z,7.40
2019-04-11T07:33:44.967Z,7.30
2019-04-11T07:36:31.661Z,7.40
2019-04-11T07:39:07.955Z,7.40
2019-04-11T07:41:38.961Z,7.50
2019-04-11T07:44:09.810Z,7.50
2019-04-11T07:46:51.629Z,7.40
2019-04-11T07:49:30.718Z,7.50
2019-04-11T07:52:01.047Z,7.60
2019-04-11T07:54:30.315Z,7.50
2019-04-11T07:57:12.987Z,7.60
2019-04-11T07:59:46.720Z,7.50
2019-04-11T08:02:20.505Z,7.40
2019-04-11T08:05:00.326Z,7.40
2019-04-11T08:07:42.710Z,7.20
2019-04-11T08:10:16.022Z,7.30
2019-04-11T08:12:46.057Z,7.40
2019-04-11T08:15:33.490Z,7.40
2019-04-11T08:18:04.037Z,7.20
2019-04-11T08:20:50.366Z,7.40
2019-04-11T08:23:21.372Z,7.40
2019-04-11T08:26:07.883Z,7.50
2019-04-11T08:28:37.334Z,7.60
2019-04-11T08:31:16.155Z,7.70
2019-04-11T08:33:44.706Z,7.60
2019-04-11T08:36:15.782Z,7.70
2019-04-11T08:38:44.759Z,7.80
2019-04-11T08:41:15.576Z,7.80
2019-04-11T08:43:44.067Z,8.10
2019-04-11T08:46:16.933Z,8.30
2019-04-11T08:48:53.078Z,8.30
2019-04-11T08:51:23.328Z,8.40
2019-04-11T08:54:09.510Z,8.50
2019-04-11T08:56:39.942Z,8.50
2019-04-11T08:59:30.945Z,8.60
2019-04-11T09:02:00.395Z,8.70
2019-04-11T09:04:46.835Z,9.00
2019-04-11T09:07:19.634Z,8.90
2019-04-11T09:09:49.740Z,9.20
2019-04-11T09:12:18.490Z,9.60
2019-04-11T09:14:57.665Z,9.80
2019-04-11T09:17:30.570Z,9.90
2019-04-11T09:20:16.583Z,10.00
2019-04-11T09:22:47.117Z,10.10
2019-04-11T09:25:23.333Z,10.20
2019-04-11T09:28:09.148Z,10.40
2019-04-11T09:30:54.895Z,10.40
2019-04-11T09:33:41.485Z,10.80
2019-04-11T09:36:28.965Z,11.10
2019-04-11T09:39:02.904Z,11.50
2019-04-11T09:41:47.667Z,11.70
2019-04-11T09:44:20.658Z,12.10
2019-04-11T09:47:07.544Z,12.30
2019-04-11T09:49:40.450Z,12.50
2019-04-11T09:52:10.522Z,12.10
2019-04-11T09:54:52.695Z,12.10
2019-04-11T09:57:25.350Z,12.10
2019-04-11T09:59:56.068Z,11.60
2019-04-11T10:02:33.257Z,12.00
2019-04-11T10:05:03.438Z,12.30
2019-04-11T10:07:50.310Z,12.50
2019-04-11T10:10:29.378Z,12.60
2019-04-11T10:13:05.213Z,13.00
2019-04-11T10:15:35.594Z,13.20
2019-04-11T10:18:26.132Z,13.80
2019-04-11T10:20:53.013Z,14.10
2019-04-11T10:23:23.121Z,14.00
2019-04-11T10:25:53.719Z,14.20
2019-04-11T10:28:39.775Z,14.10
2019-04-11T10:31:10.270Z,14.30
2019-04-11T10:33:43.336Z,15.00
2019-04-11T10:36:23.158Z,15.30
2019-04-11T10:39:11.120Z,15.30
2019-04-11T10:41:42.058Z,15.60
2019-04-11T10:44:12.217Z,14.90
2019-04-11T10:46:57.787Z,14.30
2019-04-11T10:49:36.627Z,14.10
2019-04-11T10:52:24.874Z,13.50
2019-04-11T10:55:03.703Z,13.10
2019-04-11T10:57:34.078Z,13.40
2019-04-11T11:00:05.068Z,13.50
2019-04-11T11:02:47.462Z,13.30
2019-04-11T11:05:19.127Z,13.80
2019-04-11T11:07:48.898Z,13.80
2019-04-11T11:10:21.901Z,13.90
2019-04-11T11:12:54.574Z,13.80
2019-04-11T11:15:25.337Z,13.70
2019-04-11T11:18:38.175Z,13.50
2019-04-11T11:20:50.161Z,13.50
2019-04-11T11:23:32.979Z,13.40
2019-04-11T11:26:12.653Z,13.30
2019-04-11T11:28:43.145Z,13.30
2019-04-11T11:31:22.368Z,13.60
2019-04-11T11:33:51.651Z,13.50
2019-04-11T11:36:38.103Z,13.40
2019-04-11T11:39:24.745Z,13.20
2019-04-11T11:42:12.287Z,13.00
2019-04-11T11:44:55.267Z,12.90
2019-04-11T11:47:42.099Z,13.00
2019-04-11T11:50:25.083Z,13.20
2019-04-11T11:53:13.252Z,13.20
2019-04-11T11:55:43.329Z,13.20
2019-04-11T11:58:29.937Z,12.70
2019-04-11T12:01:03.590Z,13.20
2019-04-11T12:03:48.752Z,13.00
2019-04-11T12:06:22.218Z,13.00
2019-04-11T12:09:07.109Z,12.80
2019-04-11T12:11:37.947Z,12.50
2019-04-11T12:14:24.318Z,12.50
2019-04-11T12:17:06.801Z,12.70
2019-04-11T12:20:04.841Z,13.00
2019-04-11T12:22:26.991Z,13.10
2019-04-11T12:24:57.060Z,13.20
2019-04-11T12:27:27.133Z,13.30
2019-04-11T12:30:02.700Z,13.50
2019-04-11T12:32:49.879Z,14.00
2019-04-11T12:35:27.074Z,14.30
2019-04-11T12:37:57.913Z,14.50
2019-04-11T12:40:37.216Z,14.60
2019-04-11T12:43:07.271Z,14.40
2019-04-11T12:45:55.290Z,14.40
2019-04-11T12:48:25.592Z,14.20
2019-04-11T12:51:01.414Z,14.00
2019-04-11T12:53:29.838Z,14.10
2019-04-11T12:56:02.756Z,14.10
2019-04-11T12:58:38.855Z,14.40
2019-04-11T13:01:26.791Z,14.40
2019-04-11T13:04:12.795Z,14.20
2019-04-11T13:06:42.855Z,14.50
2019-04-11T13:09:30.978Z,14.30
2019-04-11T13:12:06.666Z,14.30
2019-04-11T13:14:36.861Z,14.70
2019-04-11T13:17:09.578Z,14.80
2019-04-11T13:20:04.589Z,15.10
2019-04-11T13:22:28.040Z,15.10
2019-04-11T13:25:12.941Z,15.20
2019-04-11T13:27:43.010Z,15.30
2019-04-11T13:30:29.138Z,15.40
2019-04-11T13:32:58.034Z,15.70
2019-04-11T13:35:28.165Z,15.80
2019-04-11T13:38:17.292Z,15.80
2019-04-11T13:40:48.456Z,15.80
2019-04-11T13:43:36.145Z,15.70
2019-04-11T13:46:06.353Z,15.30
2019-04-11T13:48:47.966Z,14.90
2019-04-11T13:51:18.339Z,14.70
2019-04-11T13:53:50.970Z,14.10
2019-04-11T13:56:21.042Z,14.10
2019-04-11T13:59:09.582Z,14.00
2019-04-11T14:01:39.678Z,13.80
2019-04-11T14:04:09.739Z,13.90
2019-04-11T14:06:38.186Z,13.40
2019-04-11T14:09:09.584Z,13.30
2019-04-11T14:11:39.793Z,13.00
2019-04-11T14:14:15.814Z,13.30
2019-04-11T14:17:03.866Z,13.30
2019-04-11T14:19:50.267Z,13.30
2019-04-11T14:22:21.753Z,13.30
2019-04-11T14:25:03.946Z,13.30
2019-04-11T14:27:32.641Z,13.00
2019-04-11T14:30:05.251Z,12.70
2019-04-11T14:32:35.335Z,12.90
2019-04-11T14:35:14.210Z,12.80
2019-04-11T14:37:44.592Z,12.80
2019-04-11T14:40:18.752Z,12.90
2019-04-11T14:42:54.325Z,13.00
2019-04-11T14:45:42.131Z,13.20
2019-04-11T14:48:27.075Z,13.20
2019-04-11T14:51:02.715Z,13.30
2019-04-11T14:53:41.698Z,13.00
2019-04-11T14:56:14.492Z,12.90
2019-04-11T14:59:00.394Z,12.80
2019-04-11T15:01:30.194Z,12.70
2019-04-11T15:04:00.278Z,12.50
2019-04-11T15:06:31.459Z,12.50
2019-04-11T15:09:10.942Z,12.30
2019-04-11T15:11:49.619Z,12.40
2019-04-11T15:14:35.633Z,12.30
2019-04-11T15:17:08.613Z,12.20
2019-04-11T15:19:37.045Z,12.20
2019-04-11T15:22:07.118Z,12.20
2019-04-11T15:24:37.625Z,12.20
2019-04-11T15:27:23.822Z,12.30
2019-04-11T15:29:53.015Z,12.20
2019-04-11T15:32:35.290Z,12.30
2019-04-11T15:35:04.079Z,12.30
2019-04-11T15:37:45.908Z,12.30
2019-04-11T15:40:15.894Z,12.10
2019-04-11T15:42:51.840Z,11.90
2019-04-11T15:45:33.902Z,11.90
2019-04-11T15:48:12.940Z,12.00
2019-04-11T15:51:06.602Z,11.90
2019-04-11T15:53:34.775Z,11.80
2019-04-11T15:56:21.265Z,11.90
2019-04-11T15:58:54.298Z,11.80
2019-04-11T16:01:42.268Z,11.60
2019-04-11T16:04:15.225Z,11.40
2019-04-11T16:06:45.282Z,11.30
2019-04-11T16:09:14.570Z,11.20
2019-04-11T16:11:44.794Z,11.20
2019-04-11T16:14:13.282Z,10.90
2019-04-11T16:16:55.375Z,10.70
2019-04-11T16:19:43.281Z,10.70
2019-04-11T16:22:19.333Z,10.70
2019-04-11T16:24:51.165Z,10.40
2019-04-11T16:27:21.334Z,10.30
2019-04-11T16:29:51.574Z,10.20
2019-04-11T16:32:21.901Z,10.10
2019-04-11T16:35:08.060Z,10.00
2019-04-11T16:37:36.535Z,10.00
2019-04-11T16:40:08.126Z,9.90
2019-04-11T16:42:38.245Z,9.90
2019-04-11T16:45:25.052Z,10.00
2019-04-11T16:48:02.371Z,10.00
2019-04-11T16:50:30.783Z,9.80
2019-04-11T16:52:59.189Z,9.60
2019-04-11T16:55:27.785Z,9.70
2019-04-11T16:57:56.374Z,9.70
2019-04-11T17:00:24.790Z,9.70
2019-04-11T17:02:55.043Z,9.70
2019-04-11T17:05:24.077Z,9.60
2019-04-11T17:07:56.150Z,9.60
2019-04-11T17:10:43.062Z,9.60
2019-04-11T17:13:11.482Z,9.50
2019-04-11T17:15:39.898Z,9.60
2019-04-11T17:18:08.388Z,9.50
2019-04-11T17:20:39.571Z,9.50
2019-04-11T17:23:06.938Z,9.40
2019-04-11T17:25:35.538Z,9.20
2019-04-11T17:28:03.962Z,9.30
2019-04-11T17:30:32.390Z,9.10
2019-04-11T17:33:00.861Z,9.10
2019-04-11T17:35:31.577Z,9.00
2019-04-11T17:38:01.112Z,8.90
2019-04-11T17:40:29.739Z,8.90
2019-04-11T17:42:58.162Z,8.70
2019-04-11T17:45:26.581Z,8.70
2019-04-11T17:47:57.282Z,8.70
2019-04-11T17:50:25.364Z,8.50
2019-04-11T17:52:54.731Z,8.50
2019-04-11T17:55:24.489Z,8.30
2019-04-11T17:57:54.882Z,8.20
2019-04-11T18:00:29.599Z,8.00
2019-04-11T18:02:54.998Z,8.10
2019-04-11T18:05:23.420Z,8.20
2019-04-11T18:07:51.844Z,8.10
2019-04-11T18:10:20.326Z,8.10
2019-04-11T18:12:48.746Z,8.10
2019-04-11T18:15:17.227Z,8.00
2019-04-11T18:17:45.822Z,7.90
2019-04-11T18:20:14.522Z,7.90
2019-04-11T18:22:43.779Z,7.80
2019-04-11T18:25:13.610Z,7.80
2019-04-11T18:27:42.042Z,7.80
2019-04-11T18:30:12.078Z,7.60
2019-04-11T18:32:40.838Z,7.60
2019-04-11T18:35:09.694Z,7.60
2019-04-11T18:37:38.351Z,7.50
2019-04-11T18:40:10.285Z,7.50
2019-04-11T18:42:37.878Z,7.30
2019-04-11T18:45:08.230Z,7.50
2019-04-11T18:47:37.361Z,7.50
2019-04-11T18:50:07.799Z,7.50
2019-04-11T18:52:36.281Z,7.60
2019-04-11T18:55:06.786Z,7.50
2019-04-11T18:57:35.394Z,7.20
2019-04-11T19:00:07.966Z,7.10
2019-04-11T19:02:35.340Z,7.10
2019-04-11T19:05:05.109Z,6.80
2019-04-11T19:07:33.588Z,6.90
2019-04-11T19:10:02.241Z,7.00
2019-04-11T19:12:30.670Z,7.10
2019-04-11T19:14:59.068Z,6.90
2019-04-11T19:17:30.173Z,6.90
2019-04-11T19:19:57.641Z,6.90
2019-04-11T19:22:37.088Z,7.10
2019-04-11T19:24:56.609Z,6.80
2019-04-11T19:27:25.033Z,6.80
2019-04-11T19:29:55.600Z,6.70
2019-04-11T19:32:23.719Z,6.60
2019-04-11T19:34:52.151Z,6.60
2019-04-11T19:37:20.567Z,6.60
2019-04-11T19:39:49.161Z,6.60
2019-04-11T19:42:19.608Z,6.50
2019-04-11T19:44:49.653Z,6.50
2019-04-11T19:47:21.403Z,6.70
2019-04-11T19:49:48.237Z,6.50
2019-04-11T19:52:16.662Z,6.60
2019-04-11T19:54:45.177Z,6.80
2019-04-11T19:57:13.600Z,6.90
2019-04-11T19:59:42.022Z,6.90
2019-04-11T20:02:10.469Z,6.70
2019-04-11T20:04:38.913Z,6.90
2019-04-11T20:07:07.329Z,7.00
2019-04-11T20:09:36.124Z,6.80
2019-04-11T20:12:04.623Z,6.80
2019-04-11T20:14:34.922Z,7.00
2019-04-11T20:17:03.205Z,6.70
2019-04-11T20:19:31.622Z,6.80
2019-04-11T20:22:00.053Z,6.40
2019-04-11T20:24:28.698Z,6.50
2019-04-11T20:26:57.128Z,6.60
2019-04-11T20:29:25.543Z,6.50
2019-04-11T20:31:54.445Z,6.50
2019-04-11T20:34:27.759Z,6.50
2019-04-11T20:36:53.012Z,6.50
2019-04-11T20:39:21.792Z,6.70
2019-04-11T20:41:53.194Z,6.70
2019-04-11T20:44:20.343Z,6.60
2019-04-11T20:46:49.182Z,6.60
2019-04-11T20:49:17.599Z,6.70
2019-04-11T20:51:46.010Z,6.60
2019-04-11T20:54:14.667Z,6.60
2019-04-11T20:56:43.090Z,6.60
2019-04-11T20:59:11.494Z,6.50
2019-04-11T21:01:39.947Z,6.50
2019-04-11T21:04:08.363Z,6.50
2019-04-11T21:06:36.774Z,6.40
2019-04-11T21:09:08.935Z,6.20
2019-04-11T21:11:37.361Z,6.10
2019-04-11T21:14:05.778Z,6.00
2019-04-11T21:16:34.215Z,5.90
2019-04-11T21:19:02.703Z,6.00
2019-04-11T21:21:31.174Z,6.00
2019-04-11T21:24:00.459Z,5.90
2019-04-11T21:26:29.611Z,5.70
2019-04-11T21:28:58.971Z,5.90
2019-04-11T21:31:30.875Z,5.80
2019-04-11T21:33:58.170Z,5.90
2019-04-11T21:36:26.990Z,5.90
2019-04-11T21:38:55.546Z,5.60
2019-04-11T21:41:23.997Z,5.60
2019-04-11T21:43:52.410Z,5.70
2019-04-11T21:46:21.152Z,5.70
2019-04-11T21:48:49.664Z,5.70
2019-04-11T21:51:18.074Z,5.70
2019-04-11T21:53:46.707Z,5.40
2019-04-11T21:56:15.907Z,5.50
2019-04-11T21:58:45.253Z,5.30
2019-04-11T22:01:15.923Z,5.10
2019-04-11T22:03:45.374Z,5.00
2019-04-11T22:06:13.799Z,5.10
2019-04-11T22:08:42.278Z,5.10
2019-04-11T22:11:10.781Z,5.20
2019-04-11T22:13:40.344Z,5.20
2019-04-11T22:16:13.463Z,5.10
2019-04-11T22:18:39.903Z,5.20
2019-04-11T22:21:08.325Z,5.00
2019-04-11T22:23:48.132Z,4.80
2019-04-11T22:26:07.022Z,4.80
2019-04-11T22:28:35.455Z,4.90
2019-04-11T22:31:03.879Z,4.90
2019-04-11T22:33:42.757Z,4.90
2019-04-11T22:36:11.265Z,4.60
2019-04-11T22:38:39.674Z,4.60
2019-04-11T22:41:08.105Z,4.70
2019-04-11T22:43:38.126Z,4.60
2019-04-11T22:46:08.061Z,4.50
2019-04-11T22:48:39.007Z,4.60
2019-04-11T22:51:08.876Z,4.40
2019-04-11T22:53:37.570Z,4.50
2019-04-11T22:56:05.991Z,4.50
2019-04-11T22:58:34.391Z,4.50
2019-04-11T23:01:03.014Z,4.60
2019-04-11T23:03:35.814Z,4.60
2019-04-11T23:06:04.226Z,4.50
2019-04-11T23:08:32.774Z,4.50
2019-04-11T23:11:01.190Z,4.40
2019-04-11T23:13:47.488Z,4.10
2019-04-11T23:16:15.909Z,4.30
2019-04-11T23:18:44.903Z,4.30
2019-04-11T23:21:14.381Z,4.10
2019-04-11T23:23:43.376Z,4.10
2019-04-11T23:26:11.778Z,4.20
2019-04-11T23:28:40.239Z,4.10
2019-04-11T23:31:08.642Z,4.10
2019-04-11T23:33:37.050Z,4.10
2019-04-11T23:36:05.493Z,3.90
2019-04-11T23:38:33.914Z,4.00
2019-04-11T23:41:02.333Z,4.10
2019-04-11T23:43:30.818Z,4.00
2019-04-11T23:45:59.718Z,4.10
2019-04-11T23:52:11.259Z,4.00
2019-04-11T23:54:42.598Z,3.90
2019-04-11T23:57:11.010Z,3.70
2019-04-11T23:59:39.466Z,3.70
